createdAt,value
2018-09-03T00:00:35.365Z,17.59
2018-09-03T00:03:03.946Z,17.55
2018-09-03T00:05:32.531Z,17.50
2018-09-03T00:08:01.103Z,17.45
2018-09-03T00:10:29.689Z,17.38
2018-09-03T00:12:58.248Z,17.33
2018-09-03T00:15:26.841Z,17.28
2018-09-03T00:17:55.404Z,17.22
2018-09-03T00:20:24.023Z,17.13
2018-09-03T00:22:52.600Z,17.06
2018-09-03T00:25:21.223Z,17.00
2018-09-03T00:27:49.800Z,16.99
2018-09-03T00:30:18.399Z,16.95
2018-09-03T00:32:52.296Z,16.94
2018-09-03T00:35:26.314Z,16.90
2018-09-03T00:38:00.062Z,16.85
2018-09-03T00:41:31.778Z,16.82
2018-09-03T00:44:05.741Z,16.81
2018-09-03T00:46:39.477Z,16.79
2018-09-03T00:49:08.066Z,16.76
2018-09-03T00:51:36.666Z,16.76
2018-09-03T00:54:05.323Z,16.75
2018-09-03T00:56:33.965Z,16.75
2018-09-03T00:59:02.548Z,16.78
2018-09-03T01:01:31.139Z,16.81
2018-09-03T01:03:59.733Z,16.85
2018-09-03T01:06:28.348Z,16.87
2018-09-03T01:08:56.926Z,16.90
2018-09-03T01:11:26.493Z,16.90
2018-09-03T01:13:56.194Z,16.88
2018-09-03T01:16:24.881Z,16.90
2018-09-03T01:18:55.812Z,16.93
2018-09-03T01:21:25.283Z,16.97
2018-09-03T01:23:54.273Z,17.02
2018-09-03T01:26:22.835Z,17.06
2018-09-03T01:28:51.464Z,17.08
2018-09-03T01:31:21.623Z,17.13
2018-09-03T01:33:52.005Z,17.13
2018-09-03T01:36:20.990Z,17.14
2018-09-03T01:38:49.616Z,17.14
2018-09-03T01:41:19.015Z,17.14
2018-09-03T01:43:48.145Z,17.16
2018-09-03T01:46:16.721Z,17.17
2018-09-03T01:48:45.315Z,17.17
2018-09-03T01:51:13.889Z,17.17
2018-09-03T01:53:42.481Z,17.15
2018-09-03T01:56:11.061Z,17.13
2018-09-03T01:58:39.637Z,17.09
2018-09-03T02:01:08.218Z,17.07
2018-09-03T02:03:36.794Z,17.03
2018-09-03T02:06:05.395Z,17.02
2018-09-03T02:08:34.016Z,17.00
2018-09-03T02:11:02.589Z,16.96
2018-09-03T02:13:32.457Z,16.95
2018-09-03T02:16:01.015Z,16.98
2018-09-03T02:18:29.584Z,17.03
2018-09-03T02:20:58.214Z,17.04
2018-09-03T02:23:26.796Z,17.07
2018-09-03T02:25:55.385Z,17.09
2018-09-03T02:28:23.989Z,17.14
2018-09-03T02:30:52.576Z,17.17
2018-09-03T02:33:21.179Z,17.19
2018-09-03T02:35:49.761Z,17.21
2018-09-03T02:38:18.383Z,17.22
2018-09-03T02:40:46.967Z,17.25
2018-09-03T02:43:15.560Z,17.26
2018-09-03T02:45:44.154Z,17.28
2018-09-03T02:48:12.743Z,17.29
2018-09-03T02:50:41.316Z,17.30
2018-09-03T02:53:09.932Z,17.30
2018-09-03T02:55:38.504Z,17.31
2018-09-03T02:58:07.138Z,17.32
2018-09-03T03:00:35.717Z,17.33
2018-09-03T03:03:04.312Z,17.33
2018-09-03T03:05:32.908Z,17.34
2018-09-03T03:08:01.521Z,17.31
2018-09-03T03:10:30.088Z,17.27
2018-09-03T03:12:58.699Z,17.25
2018-09-03T03:15:27.289Z,17.22
2018-09-03T03:17:55.890Z,17.22
2018-09-03T03:20:24.467Z,17.23
2018-09-03T03:22:53.079Z,17.25
2018-09-03T03:25:21.703Z,17.26
2018-09-03T03:27:50.287Z,17.27
2018-09-03T03:30:18.893Z,17.29
2018-09-03T03:32:47.475Z,17.30
2018-09-03T03:35:16.160Z,17.31
2018-09-03T03:37:48.686Z,17.32
2018-09-03T03:40:18.333Z,17.31
2018-09-03T03:42:46.934Z,17.32
2018-09-03T03:45:15.546Z,17.35
2018-09-03T03:47:44.139Z,17.39
2018-09-03T03:50:12.744Z,17.42
2018-09-03T03:52:41.377Z,17.42
2018-09-03T03:55:10.156Z,17.42
2018-09-03T03:57:38.685Z,17.44
2018-09-03T04:00:07.586Z,17.47
2018-09-03T04:02:36.169Z,17.49
2018-09-03T04:05:04.828Z,17.48
2018-09-03T04:07:33.404Z,17.47
2018-09-03T04:10:02.005Z,17.48
2018-09-03T04:12:30.582Z,17.48
2018-09-03T04:14:59.249Z,17.47
2018-09-03T04:17:27.842Z,17.47
2018-09-03T04:20:05.804Z,17.48
2018-09-03T04:22:34.784Z,17.44
2018-09-03T04:25:04.133Z,17.44
2018-09-03T04:27:32.716Z,17.43
2018-09-03T04:30:01.345Z,17.46
2018-09-03T04:32:29.930Z,17.46
2018-09-03T04:34:58.518Z,17.48
2018-09-03T04:37:27.131Z,17.48
2018-09-03T04:39:56.290Z,17.47
2018-09-03T04:42:24.861Z,17.49
2018-09-03T04:44:53.486Z,17.49
2018-09-03T04:47:22.070Z,17.47
2018-09-03T04:49:50.732Z,17.48
2018-09-03T04:52:19.443Z,17.48
2018-09-03T04:54:48.080Z,17.45
2018-09-03T04:57:16.684Z,17.41
2018-09-03T04:59:45.311Z,17.36
2018-09-03T05:02:13.973Z,17.33
2018-09-03T05:04:42.619Z,17.29
2018-09-03T05:07:11.191Z,17.27
2018-09-03T05:09:39.841Z,17.23
2018-09-03T05:12:08.430Z,17.23
2018-09-03T05:14:37.378Z,17.21
2018-09-03T05:17:06.366Z,17.21
2018-09-03T05:19:34.982Z,17.22
2018-09-03T05:22:03.561Z,17.21
2018-09-03T05:24:32.168Z,17.21
2018-09-03T05:27:00.789Z,17.22
2018-09-03T05:29:29.426Z,17.23
2018-09-03T05:31:58.011Z,17.23
2018-09-03T05:34:26.635Z,17.27
2018-09-03T05:36:55.204Z,17.29
2018-09-03T05:39:23.801Z,17.33
2018-09-03T05:41:52.385Z,17.34
2018-09-03T05:44:20.958Z,17.35
2018-09-03T05:46:49.563Z,17.34
2018-09-03T05:49:18.154Z,17.34
2018-09-03T05:51:46.772Z,17.34
2018-09-03T05:54:15.334Z,17.35
2018-09-03T05:56:43.929Z,17.37
2018-09-03T05:59:12.537Z,17.36
2018-09-03T06:01:41.172Z,17.34
2018-09-03T06:04:09.783Z,17.35
2018-09-03T06:06:38.386Z,17.35
2018-09-03T06:09:09.217Z,17.38
2018-09-03T06:11:37.877Z,17.41
2018-09-03T06:14:06.471Z,17.44
2018-09-03T06:16:35.119Z,17.49
2018-09-03T06:19:03.690Z,17.50
2018-09-03T06:21:32.296Z,17.50
2018-09-03T06:24:00.989Z,17.50
2018-09-03T06:26:29.613Z,17.49
2018-09-03T06:28:58.191Z,17.51
2018-09-03T06:31:26.807Z,17.56
2018-09-03T06:33:55.405Z,17.66
2018-09-03T06:36:24.022Z,17.80
2018-09-03T06:38:52.664Z,17.93
2018-09-03T06:41:21.326Z,18.00
2018-09-03T06:43:49.924Z,18.03
2018-09-03T06:46:19.017Z,18.09
2018-09-03T06:48:48.005Z,18.24
2018-09-03T06:51:16.625Z,18.49
2018-09-03T06:53:45.251Z,18.76
2018-09-03T06:56:13.844Z,19.11
2018-09-03T06:58:42.738Z,19.51
2018-09-03T07:01:11.537Z,19.91
2018-09-03T07:03:40.153Z,20.24
2018-09-03T07:06:08.770Z,20.47
2018-09-03T07:08:38.167Z,20.68
2018-09-03T07:11:07.170Z,20.79
2018-09-03T07:13:35.857Z,20.67
2018-09-03T07:16:04.477Z,20.74
2018-09-03T07:18:33.050Z,20.83
2018-09-03T07:21:01.657Z,21.16
2018-09-03T07:23:30.248Z,21.51
2018-09-03T07:25:58.854Z,21.74
2018-09-03T07:28:27.417Z,21.98
2018-09-03T07:30:56.320Z,21.65
2018-09-03T07:33:24.882Z,21.62
2018-09-03T07:35:53.518Z,21.55
2018-09-03T07:38:22.135Z,21.49
2018-09-03T07:40:50.700Z,21.73
2018-09-03T07:43:19.325Z,21.79
2018-09-03T07:45:47.892Z,22.11
2018-09-03T07:48:16.480Z,22.49
2018-09-03T07:50:45.038Z,22.73
2018-09-03T07:53:13.638Z,22.91
2018-09-03T07:55:42.209Z,22.90
2018-09-03T07:58:10.798Z,22.59
2018-09-03T08:00:39.381Z,22.55
2018-09-03T08:03:07.981Z,22.77
2018-09-03T08:05:36.568Z,22.76
2018-09-03T08:08:05.312Z,22.82
2018-09-03T08:10:33.861Z,22.74
2018-09-03T08:13:02.524Z,22.64
2018-09-03T08:15:31.066Z,22.91
2018-09-03T08:17:59.687Z,23.03
2018-09-03T08:20:28.249Z,23.21
2018-09-03T08:22:56.849Z,23.29
2018-09-03T08:25:25.650Z,23.39
2018-09-03T08:27:54.324Z,23.25
2018-09-03T08:30:22.902Z,23.46
2018-09-03T08:32:51.498Z,23.64
2018-09-03T08:35:20.050Z,23.69
2018-09-03T08:37:48.645Z,23.80
2018-09-03T08:40:17.301Z,23.96
2018-09-03T08:42:45.906Z,23.98
2018-09-03T08:45:14.526Z,24.17
2018-09-03T08:47:43.109Z,24.49
2018-09-03T08:50:11.698Z,24.54
2018-09-03T08:52:40.301Z,24.62
2018-09-03T08:55:08.881Z,24.57
2018-09-03T08:57:37.455Z,24.43
2018-09-03T09:00:06.433Z,24.60
2018-09-03T09:02:35.049Z,24.64
2018-09-03T09:05:03.759Z,24.42
2018-09-03T09:07:32.371Z,24.60
2018-09-03T09:10:00.987Z,24.76
2018-09-03T09:12:29.560Z,24.87
2018-09-03T09:14:58.125Z,25.01
2018-09-03T09:17:26.723Z,25.03
2018-09-03T09:19:55.312Z,25.00
2018-09-03T09:22:23.885Z,25.09
2018-09-03T09:24:52.536Z,25.21
2018-09-03T09:27:21.112Z,25.01
2018-09-03T09:29:49.672Z,24.95
2018-09-03T09:32:18.416Z,25.23
2018-09-03T09:34:47.265Z,25.47
2018-09-03T09:37:15.925Z,25.61
2018-09-03T09:39:45.017Z,25.74
2018-09-03T09:42:13.571Z,25.59
2018-09-03T09:44:42.174Z,25.79
2018-09-03T09:47:10.785Z,25.61
2018-09-03T09:49:39.420Z,25.85
2018-09-03T09:52:07.998Z,25.96
2018-09-03T09:54:36.589Z,25.84
2018-09-03T09:57:05.361Z,26.01
2018-09-03T09:59:34.012Z,26.35
2018-09-03T10:02:02.750Z,26.31
2018-09-03T10:04:31.374Z,26.28
2018-09-03T10:06:59.969Z,26.13
2018-09-03T10:09:28.579Z,26.11
2018-09-03T10:11:57.142Z,26.15
2018-09-03T10:14:25.745Z,26.18
2018-09-03T10:16:54.360Z,26.42
2018-09-03T10:19:22.953Z,26.73
2018-09-03T10:21:51.545Z,26.86
2018-09-03T10:24:20.198Z,26.64
2018-09-03T10:26:48.821Z,26.45
2018-09-03T10:29:17.465Z,26.71
2018-09-03T10:31:46.093Z,26.91
2018-09-03T10:34:14.681Z,26.98
2018-09-03T10:36:43.580Z,27.12
2018-09-03T10:39:12.205Z,26.99
2018-09-03T10:41:40.758Z,27.12
2018-09-03T10:44:09.437Z,27.28
2018-09-03T10:46:38.020Z,27.28
2018-09-03T10:49:06.625Z,27.46
2018-09-03T10:51:35.211Z,27.35
2018-09-03T10:54:03.835Z,27.45
2018-09-03T10:56:32.440Z,27.37
2018-09-03T10:59:01.053Z,27.51
2018-09-03T11:01:29.659Z,27.65
2018-09-03T11:03:58.262Z,27.63
2018-09-03T11:06:26.837Z,27.49
2018-09-03T11:08:55.444Z,27.78
2018-09-03T11:11:24.033Z,27.83
2018-09-03T11:13:52.630Z,27.74
2018-09-03T11:16:21.265Z,28.02
2018-09-03T11:18:49.861Z,28.02
2018-09-03T11:21:18.622Z,27.88
2018-09-03T11:23:47.091Z,28.04
2018-09-03T11:26:15.691Z,28.05
2018-09-03T11:28:44.383Z,27.78
2018-09-03T11:31:12.977Z,27.74
2018-09-03T11:33:41.588Z,27.75
2018-09-03T11:36:10.172Z,27.95
2018-09-03T11:38:38.781Z,27.96
2018-09-03T11:41:07.482Z,27.84
2018-09-03T11:43:36.070Z,27.28
2018-09-03T11:46:04.739Z,26.95
2018-09-03T11:48:33.315Z,26.85
2018-09-03T11:51:01.930Z,27.03
2018-09-03T11:53:30.562Z,27.34
2018-09-03T11:55:59.153Z,27.22
2018-09-03T11:58:27.791Z,27.22
2018-09-03T12:00:59.993Z,27.22
2018-09-03T12:03:28.600Z,27.02
2018-09-03T12:05:57.259Z,26.86
2018-09-03T12:08:25.836Z,27.08
2018-09-03T12:10:54.439Z,26.71
2018-09-03T12:13:23.014Z,26.55
2018-09-03T12:16:24.242Z,26.67
2018-09-03T12:18:54.684Z,27.26
2018-09-03T12:21:23.279Z,27.40
2018-09-03T12:23:51.853Z,27.43
2018-09-03T12:26:20.491Z,27.61
2018-09-03T12:28:49.186Z,27.63
2018-09-03T12:31:17.862Z,28.03
2018-09-03T12:33:47.367Z,28.57
2018-09-03T12:36:15.968Z,28.99
2018-09-03T12:38:44.533Z,28.46
2018-09-03T12:41:13.201Z,27.98
2018-09-03T12:43:41.836Z,27.55
2018-09-03T12:46:10.437Z,27.78
2018-09-03T12:48:39.015Z,27.87
2018-09-03T12:51:07.654Z,28.00
2018-09-03T12:53:36.238Z,28.15
2018-09-03T12:56:04.912Z,28.22
2018-09-03T12:58:33.586Z,28.37
2018-09-03T13:01:02.160Z,28.51
2018-09-03T13:03:30.722Z,28.59
2018-09-03T13:05:59.313Z,28.19
2018-09-03T13:08:27.869Z,27.58
2018-09-03T13:10:56.477Z,27.81
2018-09-03T13:13:25.056Z,28.00
2018-09-03T13:15:53.678Z,28.02
2018-09-03T13:18:22.256Z,28.25
2018-09-03T13:20:50.859Z,27.87
2018-09-03T13:23:19.439Z,27.39
2018-09-03T13:25:48.056Z,27.30
2018-09-03T13:28:16.620Z,27.46
2018-09-03T13:30:45.251Z,27.73
2018-09-03T13:33:13.803Z,27.76
2018-09-03T13:35:42.380Z,27.53
2018-09-03T13:38:10.948Z,27.23
2018-09-03T13:40:39.961Z,27.21
2018-09-03T13:43:08.597Z,27.15
2018-09-03T13:45:37.202Z,26.77
2018-09-03T13:48:05.847Z,26.91
2018-09-03T13:50:34.413Z,27.38
2018-09-03T13:53:02.988Z,27.81
2018-09-03T13:55:31.589Z,27.87
2018-09-03T13:58:00.142Z,27.85
2018-09-03T14:00:28.734Z,27.83
2018-09-03T14:02:57.313Z,27.99
2018-09-03T14:05:25.921Z,28.10
2018-09-03T14:07:54.500Z,28.15
2018-09-03T14:10:23.089Z,28.13
2018-09-03T14:12:51.649Z,27.80
2018-09-03T14:15:20.262Z,27.49
2018-09-03T14:17:48.808Z,27.42
2018-09-03T14:20:17.360Z,27.59
2018-09-03T14:22:45.961Z,27.58
2018-09-03T14:25:14.563Z,27.66
2018-09-03T14:27:43.254Z,27.91
2018-09-03T14:30:11.815Z,28.00
2018-09-03T14:32:40.432Z,27.95
2018-09-03T14:35:09.291Z,28.04
2018-09-03T14:37:37.885Z,28.19
2018-09-03T14:40:06.544Z,28.12
2018-09-03T14:42:35.165Z,28.02
2018-09-03T14:45:03.756Z,27.81
2018-09-03T14:47:32.324Z,27.60
2018-09-03T14:50:00.935Z,27.64
2018-09-03T14:52:29.565Z,27.52
2018-09-03T14:54:58.135Z,27.51
2018-09-03T14:57:26.744Z,27.50
2018-09-03T14:59:55.396Z,27.63
2018-09-03T15:02:24.037Z,27.60
2018-09-03T15:04:56.078Z,27.61
2018-09-03T15:07:24.682Z,27.53
2018-09-03T15:09:53.412Z,27.53
2018-09-03T15:12:22.014Z,27.46
2018-09-03T15:14:50.601Z,27.24
2018-09-03T15:17:19.219Z,27.11
2018-09-03T15:19:47.776Z,27.10
2018-09-03T15:22:16.370Z,27.14
2018-09-03T15:24:44.994Z,27.25
2018-09-03T15:27:13.585Z,27.25
2018-09-03T15:29:42.156Z,27.07
2018-09-03T15:32:10.782Z,27.11
2018-09-03T15:34:39.375Z,26.98
2018-09-03T15:37:07.980Z,27.02
2018-09-03T15:39:36.576Z,26.92
2018-09-03T15:42:05.251Z,26.86
2018-09-03T15:44:33.848Z,26.89
2018-09-03T15:47:02.554Z,26.64
2018-09-03T15:49:31.150Z,26.70
2018-09-03T15:51:59.814Z,26.75
2018-09-03T15:54:28.373Z,26.78
2018-09-03T15:56:56.975Z,26.75
2018-09-03T15:59:25.590Z,26.67
2018-09-03T16:01:54.190Z,26.58
2018-09-03T16:04:22.781Z,26.45
2018-09-03T16:06:51.376Z,26.38
2018-09-03T16:09:19.974Z,26.37
2018-09-03T16:11:48.704Z,26.39
2018-09-03T16:14:29.063Z,26.33
2018-09-03T16:16:57.630Z,26.25
2018-09-03T16:19:26.204Z,26.17
2018-09-03T16:21:54.791Z,26.07
2018-09-03T16:24:23.418Z,26.03
2018-09-03T16:26:52.017Z,25.90
2018-09-03T16:29:20.607Z,25.82
2018-09-03T16:31:49.210Z,25.85
2018-09-03T16:34:17.776Z,25.86
2018-09-03T16:36:46.369Z,25.85
2018-09-03T16:39:14.939Z,25.70
2018-09-03T16:41:43.540Z,25.68
2018-09-03T16:44:12.123Z,25.54
2018-09-03T16:46:40.722Z,25.52
2018-09-03T16:49:09.389Z,25.60
2018-09-03T16:51:37.918Z,25.59
2018-09-03T16:54:06.601Z,25.52
2018-09-03T16:56:35.188Z,25.50
2018-09-03T16:59:03.773Z,25.50
2018-09-03T17:01:32.470Z,25.44
2018-09-03T17:04:00.987Z,25.37
2018-09-03T17:06:29.545Z,25.15
2018-09-03T17:08:58.158Z,25.07
2018-09-03T17:11:26.795Z,24.98
2018-09-03T17:13:55.391Z,24.94
2018-09-03T17:16:23.960Z,24.80
2018-09-03T17:18:52.617Z,24.66
2018-09-03T17:21:21.200Z,24.54
2018-09-03T17:23:49.788Z,24.45
2018-09-03T17:26:18.396Z,24.36
2018-09-03T17:28:47.029Z,24.24
2018-09-03T17:31:15.607Z,24.15
2018-09-03T17:33:44.185Z,24.03
2018-09-03T17:36:12.761Z,23.91
2018-09-03T17:38:41.446Z,23.78
2018-09-03T17:41:10.014Z,23.64
2018-09-03T17:43:38.598Z,23.53
2018-09-03T17:46:07.171Z,23.40
2018-09-03T17:48:35.796Z,23.32
2018-09-03T17:51:04.426Z,23.18
2018-09-03T17:53:33.032Z,23.05
2018-09-03T17:56:01.601Z,22.93
2018-09-03T17:58:30.243Z,22.82
2018-09-03T18:00:58.866Z,22.76
2018-09-03T18:03:27.492Z,22.70
2018-09-03T18:05:56.109Z,22.63
2018-09-03T18:08:25.154Z,22.53
2018-09-03T18:10:53.715Z,22.42
2018-09-03T18:13:22.307Z,22.27
2018-09-03T18:15:50.875Z,22.14
2018-09-03T18:18:19.492Z,22.03
2018-09-03T18:20:48.083Z,21.93
2018-09-03T18:23:16.670Z,21.86
2018-09-03T18:25:45.277Z,21.77
2018-09-03T18:28:13.876Z,21.68
2018-09-03T18:30:42.513Z,21.61
2018-09-03T18:33:11.104Z,21.53
2018-09-03T18:35:39.697Z,21.48
2018-09-03T18:38:08.288Z,21.40
2018-09-03T18:40:36.887Z,21.29
2018-09-03T18:43:05.524Z,21.15
2018-09-03T18:45:34.114Z,21.04
2018-09-03T18:48:02.705Z,20.94
2018-09-03T18:50:31.290Z,20.90
2018-09-03T18:52:59.901Z,20.82
2018-09-03T18:55:28.505Z,20.81
2018-09-03T18:57:57.083Z,20.77
2018-09-03T19:00:25.776Z,20.70
2018-09-03T19:02:54.346Z,20.65
2018-09-03T19:05:22.953Z,20.59
2018-09-03T19:07:51.533Z,20.51
2018-09-03T19:10:20.134Z,20.44
2018-09-03T19:12:48.721Z,20.39
2018-09-03T19:15:17.329Z,20.33
2018-09-03T19:17:45.909Z,20.27
2018-09-03T19:20:14.525Z,20.21
2018-09-03T19:22:43.096Z,20.18
2018-09-03T19:25:11.706Z,20.15
2018-09-03T19:27:40.291Z,20.10
2018-09-03T19:30:09.009Z,20.01
2018-09-03T19:32:37.630Z,19.92
2018-09-03T19:35:06.247Z,19.85
2018-09-03T19:37:34.819Z,19.81
2018-09-03T19:40:03.480Z,19.77
2018-09-03T19:42:32.047Z,19.76
2018-09-03T19:45:00.710Z,19.71
2018-09-03T19:47:29.289Z,19.66
2018-09-03T19:49:57.886Z,19.60
2018-09-03T19:52:26.448Z,19.50
2018-09-03T19:54:55.044Z,19.42
2018-09-03T19:57:23.605Z,19.38
2018-09-03T19:59:52.237Z,19.35
2018-09-03T20:02:20.801Z,19.33
2018-09-03T20:04:49.398Z,19.30
2018-09-03T20:07:17.989Z,19.27
2018-09-03T20:09:46.613Z,19.24
2018-09-03T20:12:15.247Z,19.18
2018-09-03T20:14:43.959Z,19.13
2018-09-03T20:17:12.615Z,19.07
2018-09-03T20:19:41.177Z,19.04
2018-09-03T20:22:15.405Z,18.98
2018-09-03T20:24:44.087Z,18.94
2018-09-03T20:27:13.009Z,18.90
2018-09-03T20:29:41.789Z,18.85
2018-09-03T20:32:10.406Z,18.77
2018-09-03T20:34:39.194Z,18.73
2018-09-03T20:37:08.454Z,18.67
2018-09-03T20:39:37.189Z,18.62
2018-09-03T20:42:05.823Z,18.56
2018-09-03T20:44:34.552Z,18.51
2018-09-03T20:47:03.133Z,18.47
2018-09-03T20:49:31.756Z,18.44
2018-09-03T20:52:01.172Z,18.39
2018-09-03T20:54:29.756Z,18.36
2018-09-03T20:56:58.363Z,18.33
2018-09-03T20:59:26.982Z,18.31
2018-09-03T21:01:55.632Z,18.28
2018-09-03T21:04:24.225Z,18.25
2018-09-03T21:06:52.900Z,18.20
2018-09-03T21:09:21.529Z,18.14
2018-09-03T21:11:50.141Z,18.10
2018-09-03T21:14:18.729Z,18.04
2018-09-03T21:16:47.326Z,18.00
2018-09-03T21:19:15.922Z,17.98
2018-09-03T21:21:44.604Z,17.91
2018-09-03T21:24:13.160Z,17.85
2018-09-03T21:26:41.786Z,17.77
2018-09-03T21:29:10.422Z,17.74
2018-09-03T21:31:39.040Z,17.70
2018-09-03T21:34:07.647Z,17.67
2018-09-03T21:36:36.240Z,17.66
2018-09-03T21:39:05.080Z,17.62
2018-09-03T21:41:33.766Z,17.59
2018-09-03T21:44:02.816Z,17.53
2018-09-03T21:46:31.426Z,17.50
2018-09-03T21:49:00.019Z,17.43
2018-09-03T21:51:28.632Z,17.37
2018-09-03T21:53:57.205Z,17.33
2018-09-03T21:56:25.814Z,17.29
2018-09-03T21:58:54.438Z,17.26
2018-09-03T22:01:23.062Z,17.23
2018-09-03T22:03:51.646Z,17.22
2018-09-03T22:06:20.246Z,17.19
2018-09-03T22:08:49.221Z,17.17
2018-09-03T22:11:17.819Z,17.13
2018-09-03T22:13:46.397Z,17.09
2018-09-03T22:16:15.018Z,17.03
2018-09-03T22:18:43.615Z,16.98
2018-09-03T22:21:12.257Z,16.93
2018-09-03T22:23:40.852Z,16.87
2018-09-03T22:26:09.494Z,16.82
2018-09-03T22:28:38.074Z,16.79
2018-09-03T22:31:06.718Z,16.76
2018-09-03T22:33:35.282Z,16.70
2018-09-03T22:36:03.892Z,16.62
2018-09-03T22:38:32.499Z,16.57
2018-09-03T22:41:01.100Z,16.53
2018-09-03T22:43:29.679Z,16.46
2018-09-03T22:45:58.292Z,16.43
2018-09-03T22:48:26.900Z,16.39
2018-09-03T22:50:55.619Z,16.36
2018-09-03T22:53:24.222Z,16.32
2018-09-03T22:55:52.803Z,16.32
2018-09-03T22:58:21.401Z,16.31
2018-09-03T23:00:49.989Z,16.30
2018-09-03T23:03:18.589Z,16.27
2018-09-03T23:05:47.204Z,16.23
2018-09-03T23:08:15.787Z,16.22
2018-09-03T23:10:44.361Z,16.22
2018-09-03T23:13:12.964Z,16.22
2018-09-03T23:15:45.664Z,16.21
2018-09-03T23:18:14.289Z,16.18
2018-09-03T23:20:42.872Z,16.14
2018-09-03T23:23:11.485Z,16.15
2018-09-03T23:25:40.087Z,16.16
2018-09-03T23:28:08.685Z,16.18
2018-09-03T23:30:37.274Z,16.17
2018-09-03T23:33:06.053Z,16.14
2018-09-03T23:35:34.637Z,16.10
2018-09-03T23:38:03.238Z,16.08
2018-09-03T23:40:31.826Z,16.07
2018-09-03T23:43:00.476Z,16.05
2018-09-03T23:45:29.066Z,16.03
2018-09-03T23:47:57.723Z,16.03
2018-09-03T23:50:26.303Z,16.01
2018-09-03T23:52:55.174Z,15.98
2018-09-03T23:55:23.858Z,15.95
2018-09-03T23:57:52.471Z,15.92
